Nbp Commander — V2QM6 — position and weather

sailwx.info

Track history (hours):
 
Tides and Currents Weather Stations Pressure Air Temp Water Temp Dewpoint Dewpoint Depression Visibility Wind Speed Wind Dir Waves Ship Positions

Nbp Commander

Last reported at 2018-Jan-18 06:19 UTC. Time now 2018-Jan-19 23:51 UTC.
Position N 39°30' W 009°50'.

Length 107 m; draft 4.9 m.

Type: Ship. MMSI: 305715000.

Date/timePositionNaut miles runAvg speedWind from/ knotsBaromVisibWave heightAir tempDewpointWater temp
2018-Jan-18 06:19N 39°30' W 009°50'6 7.2
2018-Jan-18 05:31N 39°24' W 009°50'0 7.0
2018-Jan-18 05:30N 39°24' W 009°50'4 7.2
2018-Jan-18 04:59N 39°20' W 009°50'3 6.9
2018-Jan-18 04:30N 39°17' W 009°50'3 6.7
2018-Jan-18 04:00N 39°14' W 009°50'4 7.0
2018-Jan-18 03:30N 39°10' W 009°50'3 6.6
2018-Jan-18 03:00N 39°07' W 009°50'3 6.8
2018-Jan-18 02:31N 39°03' W 009°50'4 7.0
2018-Jan-18 02:00N 38°60' W 009°50'3 6.9
2018-Jan-18 01:30N 38°56' W 009°51'3 6.9
2018-Jan-18 01:01N 38°53' W 009°51'7 6.8
2018-Jan-18 00:01N 38°46' W 009°51'0 6.3
2018-Jan-17 23:57N 38°46' W 009°51'  
Track history (hours):
 
Tides and Currents Weather Stations Pressure Air Temp Water Temp Dewpoint Dewpoint Depression Visibility Wind Speed Wind Dir Waves Ship Positions

Nbp Commander

Last reported at 2018-Jan-18 06:19 UTC. Time now 2018-Jan-19 23:51 UTC.
Position N 39°30' W 009°50'.

Length 107 m; draft 4.9 m.

Type: Ship. MMSI: 305715000.

Date/timePositionNaut miles runAvg speedWind from/ knotsBaromVisibWave heightAir tempDewpointWater temp
2018-Jan-18 06:19N 39°30' W 009°50'6 7.2
2018-Jan-18 05:31N 39°24' W 009°50'0 7.0
2018-Jan-18 05:30N 39°24' W 009°50'4 7.2
2018-Jan-18 04:59N 39°20' W 009°50'3 6.9
2018-Jan-18 04:30N 39°17' W 009°50'3 6.7
2018-Jan-18 04:00N 39°14' W 009°50'4 7.0
2018-Jan-18 03:30N 39°10' W 009°50'3 6.6
2018-Jan-18 03:00N 39°07' W 009°50'3 6.8
2018-Jan-18 02:31N 39°03' W 009°50'4 7.0
2018-Jan-18 02:00N 38°60' W 009°50'3 6.9
2018-Jan-18 01:30N 38°56' W 009°51'3 6.9
2018-Jan-18 01:01N 38°53' W 009°51'7 6.8
2018-Jan-18 00:01N 38°46' W 009°51'0 6.3
2018-Jan-17 23:57N 38°46' W 009°51'  

Dump ship's entire track history